sensor_id;sensor_type;location;lat;lon;timestamp;P1;durP1;ratioP1;P2;durP2;ratioP2
8098;SDS011;4092;47.876;9.372;2022-12-07T00:01:25;21.33;;;8.87;;
8098;SDS011;4092;47.876;9.372;2022-12-07T00:03:54;17.73;;;7.50;;
8098;SDS011;4092;47.876;9.372;2022-12-07T00:06:31;17.93;;;9.23;;
8098;SDS011;4092;47.876;9.372;2022-12-07T00:08:58;15.30;;;8.17;;
8098;SDS011;4092;47.876;9.372;2022-12-07T00:11:25;20.17;;;9.03;;
8098;SDS011;4092;47.876;9.372;2022-12-07T00:13:53;19.63;;;10.20;;
8098;SDS011;4092;47.876;9.372;2022-12-07T00:16:22;17.60;;;9.60;;
8098;SDS011;4092;47.876;9.372;2022-12-07T00:18:51;24.97;;;12.37;;
8098;SDS011;4092;47.876;9.372;2022-12-07T00:21:19;16.97;;;9.10;;
8098;SDS011;4092;47.876;9.372;2022-12-07T00:23:49;20.40;;;9.57;;
8098;SDS011;4092;47.876;9.372;2022-12-07T00:26:18;17.20;;;8.60;;
8098;SDS011;4092;47.876;9.372;2022-12-07T00:28:46;19.67;;;10.40;;
8098;SDS011;4092;47.876;9.372;2022-12-07T00:31:14;20.07;;;8.30;;
8098;SDS011;4092;47.876;9.372;2022-12-07T00:33:43;18.10;;;9.27;;
8098;SDS011;4092;47.876;9.372;2022-12-07T00:36:11;26.00;;;12.80;;
8098;SDS011;4092;47.876;9.372;2022-12-07T00:38:39;25.07;;;11.60;;
8098;SDS011;4092;47.876;9.372;2022-12-07T00:41:09;19.67;;;9.13;;
8098;SDS011;4092;47.876;9.372;2022-12-07T00:43:38;22.57;;;7.40;;
8098;SDS011;4092;47.876;9.372;2022-12-07T00:46:05;18.27;;;8.47;;
8098;SDS011;4092;47.876;9.372;2022-12-07T00:48:33;24.23;;;7.60;;
8098;SDS011;4092;47.876;9.372;2022-12-07T00:51:00;17.43;;;7.60;;
8098;SDS011;4092;47.876;9.372;2022-12-07T00:53:28;13.90;;;5.77;;
8098;SDS011;4092;47.876;9.372;2022-12-07T00:55:55;13.93;;;5.90;;
8098;SDS011;4092;47.876;9.372;2022-12-07T00:58:24;14.80;;;6.60;;
8098;SDS011;4092;47.876;9.372;2022-12-07T01:00:51;10.40;;;5.00;;
8098;SDS011;4092;47.876;9.372;2022-12-07T01:03:18;13.43;;;5.20;;
8098;SDS011;4092;47.876;9.372;2022-12-07T01:05:48;16.07;;;5.00;;
8098;SDS011;4092;47.876;9.372;2022-12-07T01:08:17;29.73;;;6.33;;
8098;SDS011;4092;47.876;9.372;2022-12-07T01:10:44;18.27;;;5.10;;
8098;SDS011;4092;47.876;9.372;2022-12-07T01:13:11;11.13;;;5.10;;
8098;SDS011;4092;47.876;9.372;2022-12-07T01:15:40;14.33;;;5.57;;
8098;SDS011;4092;47.876;9.372;2022-12-07T01:18:07;29.43;;;6.30;;
8098;SDS011;4092;47.876;9.372;2022-12-07T01:20:34;29.07;;;6.40;;
8098;SDS011;4092;47.876;9.372;2022-12-07T01:23:02;12.40;;;4.30;;
8098;SDS011;4092;47.876;9.372;2022-12-07T01:25:29;24.93;;;6.67;;
8098;SDS011;4092;47.876;9.372;2022-12-07T01:27:56;9.23;;;3.80;;
8098;SDS011;4092;47.876;9.372;2022-12-07T01:30:23;13.37;;;4.80;;
8098;SDS011;4092;47.876;9.372;2022-12-07T01:32:51;49.10;;;8.10;;
8098;SDS011;4092;47.876;9.372;2022-12-07T01:35:18;16.73;;;4.30;;
8098;SDS011;4092;47.876;9.372;2022-12-07T01:37:45;17.03;;;6.00;;
8098;SDS011;4092;47.876;9.372;2022-12-07T01:40:12;13.40;;;4.00;;
8098;SDS011;4092;47.876;9.372;2022-12-07T01:42:39;7.60;;;3.63;;
8098;SDS011;4092;47.876;9.372;2022-12-07T01:48:12;6.33;;;4.50;;
8098;SDS011;4092;47.876;9.372;2022-12-07T01:50:42;5.93;;;3.13;;
8098;SDS011;4092;47.876;9.372;2022-12-07T01:53:11;7.47;;;4.20;;
8098;SDS011;4092;47.876;9.372;2022-12-07T01:55:40;8.30;;;3.63;;
8098;SDS011;4092;47.876;9.372;2022-12-07T01:58:10;9.33;;;4.00;;
8098;SDS011;4092;47.876;9.372;2022-12-07T02:00:38;7.27;;;3.63;;
8098;SDS011;4092;47.876;9.372;2022-12-07T02:03:06;5.10;;;3.20;;
8098;SDS011;4092;47.876;9.372;2022-12-07T02:05:38;8.47;;;3.53;;
8098;SDS011;4092;47.876;9.372;2022-12-07T02:08:07;3.50;;;2.13;;
8098;SDS011;4092;47.876;9.372;2022-12-07T02:10:37;5.00;;;2.73;;
8098;SDS011;4092;47.876;9.372;2022-12-07T02:13:04;6.20;;;3.60;;
8098;SDS011;4092;47.876;9.372;2022-12-07T02:15:39;4.83;;;2.63;;
8098;SDS011;4092;47.876;9.372;2022-12-07T02:18:14;6.30;;;3.07;;
8098;SDS011;4092;47.876;9.372;2022-12-07T02:20:49;6.70;;;3.80;;
8098;SDS011;4092;47.876;9.372;2022-12-07T02:23:28;5.20;;;3.53;;
8098;SDS011;4092;47.876;9.372;2022-12-07T02:26:16;5.60;;;3.50;;
8098;SDS011;4092;47.876;9.372;2022-12-07T02:29:10;4.17;;;2.63;;
8098;SDS011;4092;47.876;9.372;2022-12-07T02:31:44;6.40;;;2.63;;
8098;SDS011;4092;47.876;9.372;2022-12-07T02:34:18;7.00;;;3.77;;
8098;SDS011;4092;47.876;9.372;2022-12-07T02:36:52;9.10;;;3.43;;
8098;SDS011;4092;47.876;9.372;2022-12-07T02:39:25;6.20;;;2.90;;
8098;SDS011;4092;47.876;9.372;2022-12-07T02:42:00;4.03;;;2.40;;
8098;SDS011;4092;47.876;9.372;2022-12-07T02:44:35;8.37;;;4.20;;
8098;SDS011;4092;47.876;9.372;2022-12-07T02:47:03;3.37;;;2.60;;
8098;SDS011;4092;47.876;9.372;2022-12-07T02:49:33;6.27;;;4.33;;
8098;SDS011;4092;47.876;9.372;2022-12-07T02:52:02;5.87;;;3.13;;
8098;SDS011;4092;47.876;9.372;2022-12-07T02:54:30;5.20;;;3.87;;
8098;SDS011;4092;47.876;9.372;2022-12-07T02:56:58;4.97;;;3.10;;
8098;SDS011;4092;47.876;9.372;2022-12-07T02:59:36;4.97;;;2.23;;
8098;SDS011;4092;47.876;9.372;2022-12-07T03:02:17;7.33;;;3.37;;
8098;SDS011;4092;47.876;9.372;2022-12-07T03:04:57;4.57;;;3.20;;
8098;SDS011;4092;47.876;9.372;2022-12-07T03:07:33;13.63;;;4.00;;
8098;SDS011;4092;47.876;9.372;2022-12-07T03:10:07;5.53;;;4.03;;
8098;SDS011;4092;47.876;9.372;2022-12-07T03:12:42;5.57;;;2.90;;
8098;SDS011;4092;47.876;9.372;2022-12-07T03:15:18;5.23;;;3.03;;
8098;SDS011;4092;47.876;9.372;2022-12-07T03:17:52;4.30;;;3.13;;
8098;SDS011;4092;47.876;9.372;2022-12-07T03:20:21;4.40;;;2.70;;
8098;SDS011;4092;47.876;9.372;2022-12-07T03:22:50;3.93;;;2.70;;
8098;SDS011;4092;47.876;9.372;2022-12-07T03:25:19;5.13;;;2.43;;
8098;SDS011;4092;47.876;9.372;2022-12-07T03:27:47;5.00;;;2.53;;
8098;SDS011;4092;47.876;9.372;2022-12-07T03:30:22;6.73;;;2.70;;
8098;SDS011;4092;47.876;9.372;2022-12-07T03:32:54;5.07;;;2.80;;
8098;SDS011;4092;47.876;9.372;2022-12-07T03:35:28;2.80;;;2.13;;
8098;SDS011;4092;47.876;9.372;2022-12-07T03:38:02;4.90;;;2.70;;
8098;SDS011;4092;47.876;9.372;2022-12-07T03:40:39;5.23;;;4.67;;
8098;SDS011;4092;47.876;9.372;2022-12-07T03:43:10;5.20;;;4.07;;
8098;SDS011;4092;47.876;9.372;2022-12-07T03:45:40;3.03;;;2.00;;
8098;SDS011;4092;47.876;9.372;2022-12-07T03:48:09;4.60;;;2.43;;
8098;SDS011;4092;47.876;9.372;2022-12-07T03:50:45;7.67;;;2.50;;
8098;SDS011;4092;47.876;9.372;2022-12-07T03:53:18;3.30;;;2.27;;
8098;SDS011;4092;47.876;9.372;2022-12-07T03:55:48;8.70;;;3.90;;
8098;SDS011;4092;47.876;9.372;2022-12-07T03:58:17;3.17;;;2.77;;
8098;SDS011;4092;47.876;9.372;2022-12-07T04:00:48;8.73;;;2.50;;
8098;SDS011;4092;47.876;9.372;2022-12-07T04:03:16;4.43;;;2.33;;
8098;SDS011;4092;47.876;9.372;2022-12-07T04:05:43;3.30;;;2.60;;
8098;SDS011;4092;47.876;9.372;2022-12-07T04:08:11;4.67;;;2.20;;
8098;SDS011;4092;47.876;9.372;2022-12-07T04:10:38;5.90;;;3.73;;
8098;SDS011;4092;47.876;9.372;2022-12-07T04:13:05;3.10;;;2.20;;
8098;SDS011;4092;47.876;9.372;2022-12-07T04:15:32;4.20;;;2.50;;
8098;SDS011;4092;47.876;9.372;2022-12-07T04:18:00;4.20;;;2.73;;
8098;SDS011;4092;47.876;9.372;2022-12-07T04:20:27;3.23;;;2.30;;
8098;SDS011;4092;47.876;9.372;2022-12-07T04:22:54;4.37;;;3.40;;
8098;SDS011;4092;47.876;9.372;2022-12-07T04:25:21;5.00;;;2.83;;
8098;SDS011;4092;47.876;9.372;2022-12-07T04:27:48;5.37;;;3.00;;
8098;SDS011;4092;47.876;9.372;2022-12-07T04:30:15;3.20;;;2.17;;
8098;SDS011;4092;47.876;9.372;2022-12-07T04:32:42;3.57;;;2.77;;
8098;SDS011;4092;47.876;9.372;2022-12-07T04:35:11;3.73;;;2.37;;
8098;SDS011;4092;47.876;9.372;2022-12-07T04:37:38;5.23;;;2.47;;
8098;SDS011;4092;47.876;9.372;2022-12-07T04:40:05;5.97;;;2.57;;
8098;SDS011;4092;47.876;9.372;2022-12-07T04:42:36;3.40;;;3.03;;
8098;SDS011;4092;47.876;9.372;2022-12-07T04:45:03;6.33;;;3.53;;
8098;SDS011;4092;47.876;9.372;2022-12-07T04:47:31;5.43;;;4.43;;
8098;SDS011;4092;47.876;9.372;2022-12-07T04:49:58;6.00;;;2.87;;
8098;SDS011;4092;47.876;9.372;2022-12-07T04:52:26;10.87;;;5.20;;
8098;SDS011;4092;47.876;9.372;2022-12-07T04:54:53;4.00;;;2.37;;
8098;SDS011;4092;47.876;9.372;2022-12-07T04:57:20;27.10;;;16.10;;
8098;SDS011;4092;47.876;9.372;2022-12-07T04:59:47;6.27;;;4.03;;
8098;SDS011;4092;47.876;9.372;2022-12-07T05:02:14;7.80;;;3.97;;
8098;SDS011;4092;47.876;9.372;2022-12-07T05:04:41;5.90;;;2.97;;
8098;SDS011;4092;47.876;9.372;2022-12-07T05:07:08;5.67;;;3.60;;
8098;SDS011;4092;47.876;9.372;2022-12-07T05:09:36;4.30;;;2.40;;
8098;SDS011;4092;47.876;9.372;2022-12-07T05:12:03;5.80;;;3.13;;
8098;SDS011;4092;47.876;9.372;2022-12-07T05:14:30;6.43;;;2.67;;
8098;SDS011;4092;47.876;9.372;2022-12-07T05:16:57;4.20;;;2.13;;
8098;SDS011;4092;47.876;9.372;2022-12-07T05:19:24;3.93;;;2.63;;
8098;SDS011;4092;47.876;9.372;2022-12-07T05:21:52;4.77;;;2.70;;
8098;SDS011;4092;47.876;9.372;2022-12-07T05:24:19;3.83;;;2.37;;
8098;SDS011;4092;47.876;9.372;2022-12-07T05:26:47;5.07;;;2.60;;
8098;SDS011;4092;47.876;9.372;2022-12-07T05:29:15;2.20;;;1.90;;
8098;SDS011;4092;47.876;9.372;2022-12-07T05:31:43;5.87;;;2.70;;
8098;SDS011;4092;47.876;9.372;2022-12-07T05:34:11;7.00;;;2.60;;
8098;SDS011;4092;47.876;9.372;2022-12-07T05:36:38;5.90;;;3.63;;
8098;SDS011;4092;47.876;9.372;2022-12-07T05:39:06;4.57;;;2.73;;
8098;SDS011;4092;47.876;9.372;2022-12-07T05:41:33;4.60;;;2.97;;
8098;SDS011;4092;47.876;9.372;2022-12-07T05:44:20;6.53;;;3.53;;
8098;SDS011;4092;47.876;9.372;2022-12-07T05:46:47;6.60;;;3.20;;
8098;SDS011;4092;47.876;9.372;2022-12-07T05:49:14;5.27;;;3.30;;
8098;SDS011;4092;47.876;9.372;2022-12-07T05:51:42;5.83;;;2.70;;
8098;SDS011;4092;47.876;9.372;2022-12-07T05:54:09;5.87;;;3.57;;
8098;SDS011;4092;47.876;9.372;2022-12-07T05:56:36;4.27;;;2.80;;
8098;SDS011;4092;47.876;9.372;2022-12-07T05:59:03;11.87;;;4.67;;
8098;SDS011;4092;47.876;9.372;2022-12-07T06:01:49;3.73;;;2.73;;
8098;SDS011;4092;47.876;9.372;2022-12-07T06:04:17;6.37;;;4.60;;
8098;SDS011;4092;47.876;9.372;2022-12-07T06:06:44;6.90;;;2.70;;
8098;SDS011;4092;47.876;9.372;2022-12-07T06:09:11;4.73;;;2.90;;
8098;SDS011;4092;47.876;9.372;2022-12-07T06:11:42;5.30;;;3.17;;
8098;SDS011;4092;47.876;9.372;2022-12-07T06:14:26;5.13;;;2.50;;
8098;SDS011;4092;47.876;9.372;2022-12-07T06:16:55;4.47;;;2.90;;
8098;SDS011;4092;47.876;9.372;2022-12-07T06:19:22;4.60;;;2.23;;
8098;SDS011;4092;47.876;9.372;2022-12-07T06:21:49;3.40;;;2.67;;
8098;SDS011;4092;47.876;9.372;2022-12-07T06:24:16;6.23;;;2.70;;
8098;SDS011;4092;47.876;9.372;2022-12-07T06:26:44;5.83;;;2.47;;
8098;SDS011;4092;47.876;9.372;2022-12-07T06:29:11;7.80;;;3.60;;
8098;SDS011;4092;47.876;9.372;2022-12-07T06:31:39;8.70;;;4.20;;
8098;SDS011;4092;47.876;9.372;2022-12-07T06:34:08;5.70;;;4.00;;
8098;SDS011;4092;47.876;9.372;2022-12-07T06:36:37;7.03;;;3.00;;
8098;SDS011;4092;47.876;9.372;2022-12-07T06:39:04;5.63;;;3.83;;
8098;SDS011;4092;47.876;9.372;2022-12-07T06:41:32;6.73;;;3.90;;
8098;SDS011;4092;47.876;9.372;2022-12-07T06:43:59;7.70;;;3.90;;
8098;SDS011;4092;47.876;9.372;2022-12-07T06:46:26;9.77;;;4.63;;
8098;SDS011;4092;47.876;9.372;2022-12-07T06:48:53;9.60;;;4.53;;
8098;SDS011;4092;47.876;9.372;2022-12-07T06:51:22;10.63;;;5.43;;
8098;SDS011;4092;47.876;9.372;2022-12-07T06:53:49;6.60;;;4.03;;
8098;SDS011;4092;47.876;9.372;2022-12-07T06:56:16;6.53;;;4.30;;
8098;SDS011;4092;47.876;9.372;2022-12-07T06:58:43;5.70;;;4.47;;
8098;SDS011;4092;47.876;9.372;2022-12-07T07:01:10;8.40;;;4.50;;
8098;SDS011;4092;47.876;9.372;2022-12-07T07:03:38;7.20;;;3.90;;
8098;SDS011;4092;47.876;9.372;2022-12-07T07:06:05;7.13;;;4.30;;
8098;SDS011;4092;47.876;9.372;2022-12-07T07:08:35;4.73;;;3.90;;
8098;SDS011;4092;47.876;9.372;2022-12-07T07:11:02;5.77;;;3.40;;
8098;SDS011;4092;47.876;9.372;2022-12-07T07:13:29;6.80;;;3.57;;
8098;SDS011;4092;47.876;9.372;2022-12-07T07:15:56;3.30;;;3.00;;
8098;SDS011;4092;47.876;9.372;2022-12-07T07:18:23;3.27;;;2.80;;
8098;SDS011;4092;47.876;9.372;2022-12-07T07:20:51;6.23;;;3.10;;
8098;SDS011;4092;47.876;9.372;2022-12-07T07:23:18;6.93;;;3.43;;
8098;SDS011;4092;47.876;9.372;2022-12-07T07:25:48;5.00;;;3.10;;
8098;SDS011;4092;47.876;9.372;2022-12-07T07:28:15;3.53;;;3.10;;
8098;SDS011;4092;47.876;9.372;2022-12-07T07:30:42;14.97;;;7.73;;
8098;SDS011;4092;47.876;9.372;2022-12-07T07:33:09;20.67;;;8.90;;
8098;SDS011;4092;47.876;9.372;2022-12-07T07:35:37;16.03;;;7.07;;
8098;SDS011;4092;47.876;9.372;2022-12-07T07:38:05;13.70;;;5.80;;
8098;SDS011;4092;47.876;9.372;2022-12-07T07:40:32;10.93;;;4.97;;
8098;SDS011;4092;47.876;9.372;2022-12-07T07:43:01;6.57;;;3.57;;
8098;SDS011;4092;47.876;9.372;2022-12-07T07:45:28;4.93;;;2.83;;
8098;SDS011;4092;47.876;9.372;2022-12-07T07:47:55;6.63;;;3.70;;
8098;SDS011;4092;47.876;9.372;2022-12-07T07:50:22;5.97;;;3.73;;
8098;SDS011;4092;47.876;9.372;2022-12-07T07:52:49;7.70;;;4.17;;
8098;SDS011;4092;47.876;9.372;2022-12-07T07:55:17;4.80;;;3.10;;
8098;SDS011;4092;47.876;9.372;2022-12-07T07:57:44;10.20;;;2.87;;
8098;SDS011;4092;47.876;9.372;2022-12-07T08:00:13;4.40;;;2.77;;
8098;SDS011;4092;47.876;9.372;2022-12-07T08:02:41;6.33;;;2.80;;
8098;SDS011;4092;47.876;9.372;2022-12-07T08:05:10;6.53;;;3.87;;
8098;SDS011;4092;47.876;9.372;2022-12-07T08:07:38;6.07;;;4.57;;
8098;SDS011;4092;47.876;9.372;2022-12-07T08:10:05;10.33;;;3.60;;
8098;SDS011;4092;47.876;9.372;2022-12-07T08:12:35;5.70;;;3.80;;
8098;SDS011;4092;47.876;9.372;2022-12-07T08:15:02;4.83;;;2.90;;
8098;SDS011;4092;47.876;9.372;2022-12-07T08:17:31;6.37;;;3.40;;
8098;SDS011;4092;47.876;9.372;2022-12-07T08:19:59;6.10;;;4.80;;
8098;SDS011;4092;47.876;9.372;2022-12-07T08:22:26;4.67;;;2.80;;
8098;SDS011;4092;47.876;9.372;2022-12-07T08:24:53;5.13;;;3.20;;
8098;SDS011;4092;47.876;9.372;2022-12-07T08:27:20;10.13;;;5.40;;
8098;SDS011;4092;47.876;9.372;2022-12-07T08:29:51;9.60;;;5.13;;
8098;SDS011;4092;47.876;9.372;2022-12-07T08:32:18;6.93;;;4.50;;
8098;SDS011;4092;47.876;9.372;2022-12-07T08:34:47;6.50;;;4.30;;
8098;SDS011;4092;47.876;9.372;2022-12-07T08:37:15;9.40;;;3.80;;
8098;SDS011;4092;47.876;9.372;2022-12-07T08:39:42;7.80;;;3.40;;
8098;SDS011;4092;47.876;9.372;2022-12-07T08:42:09;14.20;;;5.30;;
8098;SDS011;4092;47.876;9.372;2022-12-07T08:44:36;4.77;;;2.93;;
8098;SDS011;4092;47.876;9.372;2022-12-07T08:47:04;4.80;;;2.43;;
8098;SDS011;4092;47.876;9.372;2022-12-07T08:49:34;5.90;;;2.63;;
8098;SDS011;4092;47.876;9.372;2022-12-07T08:52:06;6.80;;;3.70;;
8098;SDS011;4092;47.876;9.372;2022-12-07T08:54:33;5.57;;;2.63;;
8098;SDS011;4092;47.876;9.372;2022-12-07T08:57:02;5.57;;;3.80;;
8098;SDS011;4092;47.876;9.372;2022-12-07T08:59:31;5.10;;;3.07;;
8098;SDS011;4092;47.876;9.372;2022-12-07T09:02:00;7.77;;;5.17;;
8098;SDS011;4092;47.876;9.372;2022-12-07T09:04:27;6.50;;;3.53;;
8098;SDS011;4092;47.876;9.372;2022-12-07T09:06:54;4.50;;;3.10;;
8098;SDS011;4092;47.876;9.372;2022-12-07T09:09:23;7.40;;;4.60;;
8098;SDS011;4092;47.876;9.372;2022-12-07T09:11:50;4.73;;;3.50;;
8098;SDS011;4092;47.876;9.372;2022-12-07T09:14:17;6.60;;;3.80;;
8098;SDS011;4092;47.876;9.372;2022-12-07T09:16:44;10.37;;;4.53;;
8098;SDS011;4092;47.876;9.372;2022-12-07T09:19:12;7.00;;;4.37;;
8098;SDS011;4092;47.876;9.372;2022-12-07T09:21:39;10.60;;;7.67;;
8098;SDS011;4092;47.876;9.372;2022-12-07T09:24:06;6.43;;;3.80;;
8098;SDS011;4092;47.876;9.372;2022-12-07T09:26:35;6.90;;;3.53;;
8098;SDS011;4092;47.876;9.372;2022-12-07T09:29:04;3.33;;;3.03;;
8098;SDS011;4092;47.876;9.372;2022-12-07T09:31:31;7.60;;;3.00;;
8098;SDS011;4092;47.876;9.372;2022-12-07T09:33:59;7.20;;;3.07;;
8098;SDS011;4092;47.876;9.372;2022-12-07T09:36:27;7.63;;;4.40;;
8098;SDS011;4092;47.876;9.372;2022-12-07T09:38:54;6.33;;;3.13;;
8098;SDS011;4092;47.876;9.372;2022-12-07T09:41:21;6.27;;;3.10;;
8098;SDS011;4092;47.876;9.372;2022-12-07T09:43:51;8.50;;;4.33;;
8098;SDS011;4092;47.876;9.372;2022-12-07T09:46:19;5.60;;;2.33;;
8098;SDS011;4092;47.876;9.372;2022-12-07T09:48:47;5.83;;;3.20;;
8098;SDS011;4092;47.876;9.372;2022-12-07T09:51:17;5.90;;;2.77;;
8098;SDS011;4092;47.876;9.372;2022-12-07T09:53:45;5.23;;;3.00;;
8098;SDS011;4092;47.876;9.372;2022-12-07T09:56:14;7.80;;;4.03;;
8098;SDS011;4092;47.876;9.372;2022-12-07T09:58:43;6.43;;;3.87;;
8098;SDS011;4092;47.876;9.372;2022-12-07T10:01:13;5.10;;;2.13;;
8098;SDS011;4092;47.876;9.372;2022-12-07T10:03:54;6.30;;;3.80;;
8098;SDS011;4092;47.876;9.372;2022-12-07T10:06:25;5.27;;;3.43;;
8098;SDS011;4092;47.876;9.372;2022-12-07T10:08:52;6.83;;;5.03;;
8098;SDS011;4092;47.876;9.372;2022-12-07T10:11:19;3.53;;;2.67;;
8098;SDS011;4092;47.876;9.372;2022-12-07T10:13:46;6.60;;;3.50;;
8098;SDS011;4092;47.876;9.372;2022-12-07T10:16:30;5.67;;;2.87;;
8098;SDS011;4092;47.876;9.372;2022-12-07T10:19:16;3.93;;;3.10;;
8098;SDS011;4092;47.876;9.372;2022-12-07T10:21:58;4.33;;;2.87;;
8098;SDS011;4092;47.876;9.372;2022-12-07T10:24:27;5.13;;;3.37;;
8098;SDS011;4092;47.876;9.372;2022-12-07T10:26:54;4.27;;;3.30;;
8098;SDS011;4092;47.876;9.372;2022-12-07T10:29:23;4.30;;;2.70;;
8098;SDS011;4092;47.876;9.372;2022-12-07T10:31:56;6.00;;;3.10;;
8098;SDS011;4092;47.876;9.372;2022-12-07T10:34:25;3.63;;;2.50;;
8098;SDS011;4092;47.876;9.372;2022-12-07T10:37:07;5.27;;;2.80;;
8098;SDS011;4092;47.876;9.372;2022-12-07T10:39:41;3.73;;;2.63;;
8098;SDS011;4092;47.876;9.372;2022-12-07T10:42:17;4.17;;;2.67;;
8098;SDS011;4092;47.876;9.372;2022-12-07T10:44:45;4.03;;;2.23;;
8098;SDS011;4092;47.876;9.372;2022-12-07T10:50:07;8.40;;;2.53;;
8098;SDS011;4092;47.876;9.372;2022-12-07T10:52:50;3.70;;;2.50;;
8098;SDS011;4092;47.876;9.372;2022-12-07T10:55:26;8.77;;;4.20;;
8098;SDS011;4092;47.876;9.372;2022-12-07T10:58:03;7.70;;;4.67;;
8098;SDS011;4092;47.876;9.372;2022-12-07T11:00:44;5.17;;;3.83;;
8098;SDS011;4092;47.876;9.372;2022-12-07T11:03:28;4.87;;;3.90;;
8098;SDS011;4092;47.876;9.372;2022-12-07T11:06:06;6.37;;;3.20;;
8098;SDS011;4092;47.876;9.372;2022-12-07T11:08:45;5.67;;;2.97;;
8098;SDS011;4092;47.876;9.372;2022-12-07T11:11:22;4.10;;;2.63;;
8098;SDS011;4092;47.876;9.372;2022-12-07T11:13:58;1.80;;;1.60;;
8098;SDS011;4092;47.876;9.372;2022-12-07T11:16:34;6.20;;;3.10;;
8098;SDS011;4092;47.876;9.372;2022-12-07T11:19:19;4.47;;;2.60;;
8098;SDS011;4092;47.876;9.372;2022-12-07T11:21:58;5.27;;;3.67;;
8098;SDS011;4092;47.876;9.372;2022-12-07T11:24:32;6.27;;;3.40;;
8098;SDS011;4092;47.876;9.372;2022-12-07T11:27:09;5.83;;;3.37;;
8098;SDS011;4092;47.876;9.372;2022-12-07T11:32:39;3.50;;;2.43;;
8098;SDS011;4092;47.876;9.372;2022-12-07T11:35:19;4.37;;;3.37;;
8098;SDS011;4092;47.876;9.372;2022-12-07T11:37:57;4.53;;;3.40;;
8098;SDS011;4092;47.876;9.372;2022-12-07T11:40:29;5.77;;;3.30;;
8098;SDS011;4092;47.876;9.372;2022-12-07T11:43:02;4.30;;;3.23;;
8098;SDS011;4092;47.876;9.372;2022-12-07T11:45:37;5.90;;;3.67;;
8098;SDS011;4092;47.876;9.372;2022-12-07T11:48:09;5.53;;;3.17;;
8098;SDS011;4092;47.876;9.372;2022-12-07T11:50:42;3.60;;;2.90;;
8098;SDS011;4092;47.876;9.372;2022-12-07T11:53:14;5.60;;;3.43;;
8098;SDS011;4092;47.876;9.372;2022-12-07T11:55:46;6.67;;;3.43;;
8098;SDS011;4092;47.876;9.372;2022-12-07T11:58:23;5.83;;;3.63;;
8098;SDS011;4092;47.876;9.372;2022-12-07T12:01:13;3.43;;;2.30;;
8098;SDS011;4092;47.876;9.372;2022-12-07T12:03:49;3.60;;;2.83;;
8098;SDS011;4092;47.876;9.372;2022-12-07T12:06:20;5.63;;;3.17;;
8098;SDS011;4092;47.876;9.372;2022-12-07T12:08:48;8.00;;;3.87;;
8098;SDS011;4092;47.876;9.372;2022-12-07T12:11:25;8.10;;;2.73;;
8098;SDS011;4092;47.876;9.372;2022-12-07T12:14:13;4.30;;;3.03;;
8098;SDS011;4092;47.876;9.372;2022-12-07T12:17:00;5.30;;;3.23;;
8098;SDS011;4092;47.876;9.372;2022-12-07T12:19:38;4.63;;;3.00;;
8098;SDS011;4092;47.876;9.372;2022-12-07T12:22:12;7.03;;;4.30;;
8098;SDS011;4092;47.876;9.372;2022-12-07T12:24:43;7.53;;;3.40;;
8098;SDS011;4092;47.876;9.372;2022-12-07T12:27:17;5.13;;;2.67;;
8098;SDS011;4092;47.876;9.372;2022-12-07T12:29:51;7.13;;;3.40;;
8098;SDS011;4092;47.876;9.372;2022-12-07T12:32:20;4.67;;;3.30;;
8098;SDS011;4092;47.876;9.372;2022-12-07T12:35:00;8.43;;;4.17;;
8098;SDS011;4092;47.876;9.372;2022-12-07T12:37:47;8.30;;;4.87;;
8098;SDS011;4092;47.876;9.372;2022-12-07T12:52:01;6.43;;;3.80;;
8098;SDS011;4092;47.876;9.372;2022-12-07T12:55:14;8.43;;;4.00;;
8098;SDS011;4092;47.876;9.372;2022-12-07T12:57:46;7.40;;;4.23;;
8098;SDS011;4092;47.876;9.372;2022-12-07T13:00:18;6.10;;;3.80;;
8098;SDS011;4092;47.876;9.372;2022-12-07T13:02:48;4.50;;;2.30;;
8098;SDS011;4092;47.876;9.372;2022-12-07T13:05:18;8.40;;;4.40;;
8098;SDS011;4092;47.876;9.372;2022-12-07T13:07:51;7.37;;;3.50;;
8098;SDS011;4092;47.876;9.372;2022-12-07T13:18:55;6.57;;;3.20;;
8098;SDS011;4092;47.876;9.372;2022-12-07T13:21:41;5.20;;;4.03;;
8098;SDS011;4092;47.876;9.372;2022-12-07T13:24:09;7.17;;;2.80;;
8098;SDS011;4092;47.876;9.372;2022-12-07T13:26:41;7.17;;;3.50;;
8098;SDS011;4092;47.876;9.372;2022-12-07T13:29:11;6.47;;;3.53;;
8098;SDS011;4092;47.876;9.372;2022-12-07T13:31:40;4.80;;;3.43;;
8098;SDS011;4092;47.876;9.372;2022-12-07T13:37:08;5.57;;;3.13;;
8098;SDS011;4092;47.876;9.372;2022-12-07T13:39:44;5.07;;;3.23;;
8098;SDS011;4092;47.876;9.372;2022-12-07T13:42:18;7.73;;;3.93;;
8098;SDS011;4092;47.876;9.372;2022-12-07T13:44:50;7.37;;;3.93;;
8098;SDS011;4092;47.876;9.372;2022-12-07T13:47:18;4.17;;;3.13;;
8098;SDS011;4092;47.876;9.372;2022-12-07T13:49:53;9.40;;;4.60;;
8098;SDS011;4092;47.876;9.372;2022-12-07T13:52:23;5.27;;;3.90;;
8098;SDS011;4092;47.876;9.372;2022-12-07T13:54:55;5.33;;;4.10;;
8098;SDS011;4092;47.876;9.372;2022-12-07T13:57:26;8.87;;;3.73;;
8098;SDS011;4092;47.876;9.372;2022-12-07T13:59:55;8.53;;;5.07;;
8098;SDS011;4092;47.876;9.372;2022-12-07T14:02:24;7.77;;;4.37;;
8098;SDS011;4092;47.876;9.372;2022-12-07T14:05:05;8.97;;;4.00;;
8098;SDS011;4092;47.876;9.372;2022-12-07T14:07:34;6.70;;;4.87;;
8098;SDS011;4092;47.876;9.372;2022-12-07T14:10:02;8.33;;;6.03;;
8098;SDS011;4092;47.876;9.372;2022-12-07T14:12:32;5.07;;;3.37;;
8098;SDS011;4092;47.876;9.372;2022-12-07T14:15:03;7.13;;;3.83;;
8098;SDS011;4092;47.876;9.372;2022-12-07T14:17:31;4.83;;;3.07;;
8098;SDS011;4092;47.876;9.372;2022-12-07T14:19:58;7.70;;;3.80;;
8098;SDS011;4092;47.876;9.372;2022-12-07T14:22:30;8.20;;;4.77;;
8098;SDS011;4092;47.876;9.372;2022-12-07T14:25:00;7.83;;;5.10;;
8098;SDS011;4092;47.876;9.372;2022-12-07T14:27:48;11.33;;;5.17;;
8098;SDS011;4092;47.876;9.372;2022-12-07T14:30:18;5.17;;;3.40;;
8098;SDS011;4092;47.876;9.372;2022-12-07T14:32:46;10.50;;;5.13;;
8098;SDS011;4092;47.876;9.372;2022-12-07T14:35:17;5.37;;;3.30;;
8098;SDS011;4092;47.876;9.372;2022-12-07T14:37:46;12.17;;;4.30;;
8098;SDS011;4092;47.876;9.372;2022-12-07T14:40:15;8.60;;;4.80;;
8098;SDS011;4092;47.876;9.372;2022-12-07T14:42:43;14.50;;;4.83;;
8098;SDS011;4092;47.876;9.372;2022-12-07T14:45:14;8.77;;;4.07;;
8098;SDS011;4092;47.876;9.372;2022-12-07T14:47:43;6.70;;;4.40;;
8098;SDS011;4092;47.876;9.372;2022-12-07T14:50:11;6.17;;;4.20;;
8098;SDS011;4092;47.876;9.372;2022-12-07T14:52:39;5.70;;;3.33;;
8098;SDS011;4092;47.876;9.372;2022-12-07T14:55:12;8.63;;;4.40;;
8098;SDS011;4092;47.876;9.372;2022-12-07T14:57:40;9.30;;;4.97;;
8098;SDS011;4092;47.876;9.372;2022-12-07T15:00:08;8.17;;;4.80;;
8098;SDS011;4092;47.876;9.372;2022-12-07T15:02:45;8.07;;;4.30;;
8098;SDS011;4092;47.876;9.372;2022-12-07T15:05:15;8.40;;;5.67;;
8098;SDS011;4092;47.876;9.372;2022-12-07T15:07:44;7.57;;;4.87;;
8098;SDS011;4092;47.876;9.372;2022-12-07T15:10:13;7.97;;;4.53;;
8098;SDS011;4092;47.876;9.372;2022-12-07T15:12:44;8.03;;;4.20;;
8098;SDS011;4092;47.876;9.372;2022-12-07T15:15:11;10.33;;;5.13;;
8098;SDS011;4092;47.876;9.372;2022-12-07T15:17:40;8.43;;;5.53;;
8098;SDS011;4092;47.876;9.372;2022-12-07T15:20:08;7.23;;;4.57;;
8098;SDS011;4092;47.876;9.372;2022-12-07T15:22:37;10.17;;;5.70;;
8098;SDS011;4092;47.876;9.372;2022-12-07T15:25:05;8.03;;;4.90;;
8098;SDS011;4092;47.876;9.372;2022-12-07T15:27:32;13.13;;;6.40;;
8098;SDS011;4092;47.876;9.372;2022-12-07T15:29:59;14.90;;;7.17;;
8098;SDS011;4092;47.876;9.372;2022-12-07T15:32:26;10.00;;;6.93;;
8098;SDS011;4092;47.876;9.372;2022-12-07T15:34:55;11.33;;;6.87;;
8098;SDS011;4092;47.876;9.372;2022-12-07T15:37:22;9.67;;;6.73;;
8098;SDS011;4092;47.876;9.372;2022-12-07T15:39:49;9.07;;;5.50;;
8098;SDS011;4092;47.876;9.372;2022-12-07T15:42:16;9.80;;;5.93;;
8098;SDS011;4092;47.876;9.372;2022-12-07T15:44:43;10.40;;;5.00;;
8098;SDS011;4092;47.876;9.372;2022-12-07T15:47:27;8.30;;;4.77;;
8098;SDS011;4092;47.876;9.372;2022-12-07T15:49:55;11.93;;;5.50;;
8098;SDS011;4092;47.876;9.372;2022-12-07T15:52:22;9.50;;;5.13;;
8098;SDS011;4092;47.876;9.372;2022-12-07T15:54:50;8.43;;;4.60;;
8098;SDS011;4092;47.876;9.372;2022-12-07T15:57:16;7.90;;;4.17;;
8098;SDS011;4092;47.876;9.372;2022-12-07T15:59:43;11.03;;;5.90;;
8098;SDS011;4092;47.876;9.372;2022-12-07T16:02:10;12.13;;;5.50;;
8098;SDS011;4092;47.876;9.372;2022-12-07T16:04:38;6.70;;;4.33;;